sensor_id;sensor_type;location;lat;lon;timestamp;P1;durP1;ratioP1;P2;durP2;ratioP2
31732;SDS011;18312;51.486;7.144;2023-06-22T00:00:40;5.10;;;3.38;;
31732;SDS011;18312;51.486;7.144;2023-06-22T00:03:07;8.43;;;3.47;;
31732;SDS011;18312;51.486;7.144;2023-06-22T00:05:34;6.43;;;3.97;;
31732;SDS011;18312;51.486;7.144;2023-06-22T00:08:02;9.85;;;4.22;;
31732;SDS011;18312;51.486;7.144;2023-06-22T00:10:31;7.07;;;3.67;;
31732;SDS011;18312;51.486;7.144;2023-06-22T00:12:58;7.53;;;4.32;;
31732;SDS011;18312;51.486;7.144;2023-06-22T00:15:26;9.43;;;3.92;;
31732;SDS011;18312;51.486;7.144;2023-06-22T00:17:53;4.90;;;3.90;;
31732;SDS011;18312;51.486;7.144;2023-06-22T00:20:22;5.35;;;4.20;;
31732;SDS011;18312;51.486;7.144;2023-06-22T00:22:52;8.63;;;4.97;;
31732;SDS011;18312;51.486;7.144;2023-06-22T00:25:19;9.77;;;5.72;;
31732;SDS011;18312;51.486;7.144;2023-06-22T00:27:46;9.65;;;5.30;;
31732;SDS011;18312;51.486;7.144;2023-06-22T00:30:13;9.68;;;4.68;;
31732;SDS011;18312;51.486;7.144;2023-06-22T00:32:43;8.13;;;5.25;;
31732;SDS011;18312;51.486;7.144;2023-06-22T00:35:11;12.30;;;4.97;;
31732;SDS011;18312;51.486;7.144;2023-06-22T00:37:38;13.23;;;4.85;;
31732;SDS011;18312;51.486;7.144;2023-06-22T00:40:09;10.45;;;5.65;;
31732;SDS011;18312;51.486;7.144;2023-06-22T00:42:37;9.35;;;4.65;;
31732;SDS011;18312;51.486;7.144;2023-06-22T00:45:04;8.00;;;5.32;;
31732;SDS011;18312;51.486;7.144;2023-06-22T00:47:33;4.53;;;3.83;;
31732;SDS011;18312;51.486;7.144;2023-06-22T00:50:03;9.80;;;4.60;;
31732;SDS011;18312;51.486;7.144;2023-06-22T00:52:33;5.75;;;3.60;;
31732;SDS011;18312;51.486;7.144;2023-06-22T00:55:01;7.88;;;4.47;;
31732;SDS011;18312;51.486;7.144;2023-06-22T00:57:28;6.65;;;3.83;;
31732;SDS011;18312;51.486;7.144;2023-06-22T00:59:56;8.90;;;3.83;;
31732;SDS011;18312;51.486;7.144;2023-06-22T01:02:23;6.18;;;4.05;;
31732;SDS011;18312;51.486;7.144;2023-06-22T01:04:50;6.22;;;4.35;;
31732;SDS011;18312;51.486;7.144;2023-06-22T01:07:20;6.78;;;4.30;;
31732;SDS011;18312;51.486;7.144;2023-06-22T01:09:57;4.40;;;3.58;;
31732;SDS011;18312;51.486;7.144;2023-06-22T01:12:30;4.40;;;3.30;;
31732;SDS011;18312;51.486;7.144;2023-06-22T01:15:02;6.45;;;3.63;;
31732;SDS011;18312;51.486;7.144;2023-06-22T01:17:34;4.95;;;3.63;;
31732;SDS011;18312;51.486;7.144;2023-06-22T01:20:02;7.25;;;3.78;;
31732;SDS011;18312;51.486;7.144;2023-06-22T01:22:33;7.35;;;3.80;;
31732;SDS011;18312;51.486;7.144;2023-06-22T01:25:33;5.97;;;4.45;;
31732;SDS011;18312;51.486;7.144;2023-06-22T01:28:12;8.15;;;4.22;;
31732;SDS011;18312;51.486;7.144;2023-06-22T01:33:31;6.70;;;4.22;;
31732;SDS011;18312;51.486;7.144;2023-06-22T01:36:00;8.38;;;4.63;;
31732;SDS011;18312;51.486;7.144;2023-06-22T01:38:29;6.53;;;4.22;;
31732;SDS011;18312;51.486;7.144;2023-06-22T01:40:57;7.60;;;4.30;;
31732;SDS011;18312;51.486;7.144;2023-06-22T01:43:24;7.82;;;5.32;;
31732;SDS011;18312;51.486;7.144;2023-06-22T01:45:54;10.95;;;5.18;;
31732;SDS011;18312;51.486;7.144;2023-06-22T01:48:22;13.02;;;7.05;;
31732;SDS011;18312;51.486;7.144;2023-06-22T01:50:51;9.07;;;5.40;;
31732;SDS011;18312;51.486;7.144;2023-06-22T01:53:18;8.45;;;5.68;;
31732;SDS011;18312;51.486;7.144;2023-06-22T01:55:46;9.52;;;5.97;;
31732;SDS011;18312;51.486;7.144;2023-06-22T01:58:13;11.00;;;6.78;;
31732;SDS011;18312;51.486;7.144;2023-06-22T02:00:44;11.35;;;7.32;;
31732;SDS011;18312;51.486;7.144;2023-06-22T02:03:19;12.23;;;5.88;;
31732;SDS011;18312;51.486;7.144;2023-06-22T02:05:49;12.00;;;6.35;;
31732;SDS011;18312;51.486;7.144;2023-06-22T02:08:19;12.43;;;7.43;;
31732;SDS011;18312;51.486;7.144;2023-06-22T02:10:50;10.95;;;7.28;;
31732;SDS011;18312;51.486;7.144;2023-06-22T02:13:18;17.00;;;9.73;;
31732;SDS011;18312;51.486;7.144;2023-06-22T02:15:45;15.18;;;9.93;;
31732;SDS011;18312;51.486;7.144;2023-06-22T02:18:13;18.80;;;9.52;;
31732;SDS011;18312;51.486;7.144;2023-06-22T02:20:41;17.75;;;9.75;;
31732;SDS011;18312;51.486;7.144;2023-06-22T02:23:08;13.23;;;8.60;;
31732;SDS011;18312;51.486;7.144;2023-06-22T02:25:35;15.35;;;9.07;;
31732;SDS011;18312;51.486;7.144;2023-06-22T02:28:02;16.35;;;9.32;;
31732;SDS011;18312;51.486;7.144;2023-06-22T02:30:30;13.88;;;8.98;;
31732;SDS011;18312;51.486;7.144;2023-06-22T02:32:58;17.90;;;9.50;;
31732;SDS011;18312;51.486;7.144;2023-06-22T02:35:25;16.00;;;9.20;;
31732;SDS011;18312;51.486;7.144;2023-06-22T02:37:57;16.88;;;10.55;;
31732;SDS011;18312;51.486;7.144;2023-06-22T02:40:24;17.63;;;10.60;;
31732;SDS011;18312;51.486;7.144;2023-06-22T02:42:51;22.38;;;11.15;;
31732;SDS011;18312;51.486;7.144;2023-06-22T02:45:18;21.00;;;11.40;;
31732;SDS011;18312;51.486;7.144;2023-06-22T02:47:45;17.00;;;11.82;;
31732;SDS011;18312;51.486;7.144;2023-06-22T02:50:12;15.50;;;10.88;;
31732;SDS011;18312;51.486;7.144;2023-06-22T02:52:39;17.25;;;11.75;;
31732;SDS011;18312;51.486;7.144;2023-06-22T02:55:08;16.60;;;11.85;;
31732;SDS011;18312;51.486;7.144;2023-06-22T02:57:35;20.05;;;10.95;;
31732;SDS011;18312;51.486;7.144;2023-06-22T03:00:03;21.70;;;11.50;;
31732;SDS011;18312;51.486;7.144;2023-06-22T03:05:08;16.55;;;11.48;;
31732;SDS011;18312;51.486;7.144;2023-06-22T03:07:38;18.80;;;12.13;;
31732;SDS011;18312;51.486;7.144;2023-06-22T03:10:08;22.50;;;11.25;;
31732;SDS011;18312;51.486;7.144;2023-06-22T03:12:36;19.60;;;11.70;;
31732;SDS011;18312;51.486;7.144;2023-06-22T03:15:03;16.92;;;12.38;;
31732;SDS011;18312;51.486;7.144;2023-06-22T03:17:31;16.50;;;11.15;;
31732;SDS011;18312;51.486;7.144;2023-06-22T03:19:58;19.58;;;12.05;;
31732;SDS011;18312;51.486;7.144;2023-06-22T03:22:25;17.42;;;11.80;;
31732;SDS011;18312;51.486;7.144;2023-06-22T03:24:52;19.35;;;11.63;;
31732;SDS011;18312;51.486;7.144;2023-06-22T03:27:20;21.73;;;11.82;;
31732;SDS011;18312;51.486;7.144;2023-06-22T03:29:46;17.17;;;11.20;;
31732;SDS011;18312;51.486;7.144;2023-06-22T03:32:13;19.83;;;11.65;;
31732;SDS011;18312;51.486;7.144;2023-06-22T03:34:40;18.08;;;12.50;;
31732;SDS011;18312;51.486;7.144;2023-06-22T03:37:12;19.35;;;12.07;;
31732;SDS011;18312;51.486;7.144;2023-06-22T03:39:39;21.40;;;13.57;;
31732;SDS011;18312;51.486;7.144;2023-06-22T03:42:06;22.17;;;12.50;;
31732;SDS011;18312;51.486;7.144;2023-06-22T03:44:34;20.35;;;12.88;;
31732;SDS011;18312;51.486;7.144;2023-06-22T03:47:02;23.17;;;12.98;;
31732;SDS011;18312;51.486;7.144;2023-06-22T03:49:32;32.25;;;14.02;;
31732;SDS011;18312;51.486;7.144;2023-06-22T03:51:59;25.80;;;14.20;;
31732;SDS011;18312;51.486;7.144;2023-06-22T03:54:26;18.38;;;13.02;;
31732;SDS011;18312;51.486;7.144;2023-06-22T03:56:54;20.00;;;12.52;;
31732;SDS011;18312;51.486;7.144;2023-06-22T03:59:21;20.60;;;14.05;;
31732;SDS011;18312;51.486;7.144;2023-06-22T04:01:49;25.45;;;13.50;;
31732;SDS011;18312;51.486;7.144;2023-06-22T04:04:16;22.00;;;12.70;;
31732;SDS011;18312;51.486;7.144;2023-06-22T04:06:43;24.73;;;14.98;;
31732;SDS011;18312;51.486;7.144;2023-06-22T04:09:10;21.75;;;14.75;;
31732;SDS011;18312;51.486;7.144;2023-06-22T04:11:37;26.40;;;14.82;;
31732;SDS011;18312;51.486;7.144;2023-06-22T04:14:03;30.13;;;15.48;;
31732;SDS011;18312;51.486;7.144;2023-06-22T04:16:30;25.92;;;15.77;;
31732;SDS011;18312;51.486;7.144;2023-06-22T04:18:58;27.27;;;15.07;;
31732;SDS011;18312;51.486;7.144;2023-06-22T04:21:25;25.65;;;15.18;;
31732;SDS011;18312;51.486;7.144;2023-06-22T04:23:52;23.70;;;15.48;;
31732;SDS011;18312;51.486;7.144;2023-06-22T04:26:19;27.85;;;14.70;;
31732;SDS011;18312;51.486;7.144;2023-06-22T04:28:46;25.13;;;14.85;;
31732;SDS011;18312;51.486;7.144;2023-06-22T04:31:16;25.77;;;14.60;;
31732;SDS011;18312;51.486;7.144;2023-06-22T04:33:44;31.95;;;16.58;;
31732;SDS011;18312;51.486;7.144;2023-06-22T04:36:12;23.88;;;15.23;;
31732;SDS011;18312;51.486;7.144;2023-06-22T04:38:40;31.58;;;16.75;;
31732;SDS011;18312;51.486;7.144;2023-06-22T04:41:07;25.75;;;16.95;;
31732;SDS011;18312;51.486;7.144;2023-06-22T04:43:39;24.58;;;14.60;;
31732;SDS011;18312;51.486;7.144;2023-06-22T04:46:06;22.10;;;14.93;;
31732;SDS011;18312;51.486;7.144;2023-06-22T04:48:32;28.58;;;15.68;;
31732;SDS011;18312;51.486;7.144;2023-06-22T04:50:59;25.98;;;15.07;;
31732;SDS011;18312;51.486;7.144;2023-06-22T04:53:29;25.20;;;14.93;;
31732;SDS011;18312;51.486;7.144;2023-06-22T04:55:56;23.10;;;15.18;;
31732;SDS011;18312;51.486;7.144;2023-06-22T04:58:23;24.38;;;14.95;;
31732;SDS011;18312;51.486;7.144;2023-06-22T05:00:52;30.88;;;15.52;;
31732;SDS011;18312;51.486;7.144;2023-06-22T05:03:21;25.23;;;14.35;;
31732;SDS011;18312;51.486;7.144;2023-06-22T05:05:50;27.60;;;15.30;;
31732;SDS011;18312;51.486;7.144;2023-06-22T05:08:17;24.30;;;14.43;;
31732;SDS011;18312;51.486;7.144;2023-06-22T05:10:46;20.63;;;14.32;;
31732;SDS011;18312;51.486;7.144;2023-06-22T05:13:12;24.52;;;14.48;;
31732;SDS011;18312;51.486;7.144;2023-06-22T05:15:39;23.77;;;14.65;;
31732;SDS011;18312;51.486;7.144;2023-06-22T05:18:06;25.33;;;15.10;;
31732;SDS011;18312;51.486;7.144;2023-06-22T05:20:33;27.20;;;15.52;;
31732;SDS011;18312;51.486;7.144;2023-06-22T05:23:01;26.35;;;14.38;;
31732;SDS011;18312;51.486;7.144;2023-06-22T05:25:27;25.05;;;14.40;;
31732;SDS011;18312;51.486;7.144;2023-06-22T05:27:58;40.58;;;15.98;;
31732;SDS011;18312;51.486;7.144;2023-06-22T05:30:25;22.90;;;14.90;;
31732;SDS011;18312;51.486;7.144;2023-06-22T05:32:53;27.17;;;15.40;;
31732;SDS011;18312;51.486;7.144;2023-06-22T05:35:20;24.98;;;14.38;;
31732;SDS011;18312;51.486;7.144;2023-06-22T05:37:47;24.50;;;14.18;;
31732;SDS011;18312;51.486;7.144;2023-06-22T05:40:13;33.63;;;16.13;;
31732;SDS011;18312;51.486;7.144;2023-06-22T05:42:40;25.05;;;14.98;;
31732;SDS011;18312;51.486;7.144;2023-06-22T05:45:09;30.75;;;15.65;;
31732;SDS011;18312;51.486;7.144;2023-06-22T05:47:36;32.22;;;15.57;;
31732;SDS011;18312;51.486;7.144;2023-06-22T05:50:03;30.58;;;15.02;;
31732;SDS011;18312;51.486;7.144;2023-06-22T05:52:31;21.13;;;14.55;;
31732;SDS011;18312;51.486;7.144;2023-06-22T05:54:58;28.15;;;15.82;;
31732;SDS011;18312;51.486;7.144;2023-06-22T05:57:25;26.42;;;13.25;;
31732;SDS011;18312;51.486;7.144;2023-06-22T05:59:52;29.15;;;15.02;;
31732;SDS011;18312;51.486;7.144;2023-06-22T06:02:20;23.60;;;14.45;;
31732;SDS011;18312;51.486;7.144;2023-06-22T06:04:47;24.27;;;13.63;;
31732;SDS011;18312;51.486;7.144;2023-06-22T06:07:16;22.08;;;14.25;;
31732;SDS011;18312;51.486;7.144;2023-06-22T06:09:42;29.20;;;14.25;;
31732;SDS011;18312;51.486;7.144;2023-06-22T06:12:15;25.52;;;15.07;;
31732;SDS011;18312;51.486;7.144;2023-06-22T06:14:42;23.55;;;14.45;;
31732;SDS011;18312;51.486;7.144;2023-06-22T06:17:09;23.63;;;14.23;;
31732;SDS011;18312;51.486;7.144;2023-06-22T06:19:37;21.27;;;14.38;;
31732;SDS011;18312;51.486;7.144;2023-06-22T06:22:04;23.05;;;14.10;;
31732;SDS011;18312;51.486;7.144;2023-06-22T06:24:30;25.27;;;13.02;;
31732;SDS011;18312;51.486;7.144;2023-06-22T06:26:57;25.98;;;13.68;;
31732;SDS011;18312;51.486;7.144;2023-06-22T06:29:24;19.38;;;13.13;;
31732;SDS011;18312;51.486;7.144;2023-06-22T06:31:51;22.80;;;13.88;;
31732;SDS011;18312;51.486;7.144;2023-06-22T06:34:18;23.10;;;13.35;;
31732;SDS011;18312;51.486;7.144;2023-06-22T06:36:46;21.92;;;13.45;;
31732;SDS011;18312;51.486;7.144;2023-06-22T06:39:13;28.20;;;13.32;;
31732;SDS011;18312;51.486;7.144;2023-06-22T06:41:41;22.65;;;12.88;;
31732;SDS011;18312;51.486;7.144;2023-06-22T06:44:08;20.85;;;13.52;;
31732;SDS011;18312;51.486;7.144;2023-06-22T06:46:35;21.80;;;13.88;;
31732;SDS011;18312;51.486;7.144;2023-06-22T06:49:01;22.23;;;13.55;;
31732;SDS011;18312;51.486;7.144;2023-06-22T06:51:29;23.35;;;13.68;;
31732;SDS011;18312;51.486;7.144;2023-06-22T06:53:58;30.40;;;13.63;;
31732;SDS011;18312;51.486;7.144;2023-06-22T06:56:25;17.75;;;12.38;;
31732;SDS011;18312;51.486;7.144;2023-06-22T06:58:51;23.35;;;14.30;;
31732;SDS011;18312;51.486;7.144;2023-06-22T07:01:19;22.35;;;13.55;;
31732;SDS011;18312;51.486;7.144;2023-06-22T07:03:46;24.17;;;13.13;;
31732;SDS011;18312;51.486;7.144;2023-06-22T07:06:13;22.05;;;13.70;;
31732;SDS011;18312;51.486;7.144;2023-06-22T07:08:41;19.40;;;13.45;;
31732;SDS011;18312;51.486;7.144;2023-06-22T07:11:09;19.30;;;13.45;;
31732;SDS011;18312;51.486;7.144;2023-06-22T07:13:36;21.80;;;13.70;;
31732;SDS011;18312;51.486;7.144;2023-06-22T07:16:03;25.10;;;13.23;;
31732;SDS011;18312;51.486;7.144;2023-06-22T07:18:30;23.02;;;13.20;;
31732;SDS011;18312;51.486;7.144;2023-06-22T07:20:57;23.02;;;13.52;;
31732;SDS011;18312;51.486;7.144;2023-06-22T07:23:24;18.90;;;12.38;;
31732;SDS011;18312;51.486;7.144;2023-06-22T07:25:50;23.65;;;12.57;;
31732;SDS011;18312;51.486;7.144;2023-06-22T07:28:19;21.00;;;13.05;;
31732;SDS011;18312;51.486;7.144;2023-06-22T07:30:45;16.35;;;11.45;;
31732;SDS011;18312;51.486;7.144;2023-06-22T07:33:12;23.30;;;13.10;;
31732;SDS011;18312;51.486;7.144;2023-06-22T07:35:39;19.15;;;12.55;;
31732;SDS011;18312;51.486;7.144;2023-06-22T07:38:06;22.85;;;13.20;;
31732;SDS011;18312;51.486;7.144;2023-06-22T07:40:34;20.00;;;12.75;;
31732;SDS011;18312;51.486;7.144;2023-06-22T07:43:01;19.38;;;12.75;;
31732;SDS011;18312;51.486;7.144;2023-06-22T07:45:29;21.52;;;13.70;;
31732;SDS011;18312;51.486;7.144;2023-06-22T07:47:58;23.58;;;14.13;;
31732;SDS011;18312;51.486;7.144;2023-06-22T07:50:25;24.20;;;14.48;;
31732;SDS011;18312;51.486;7.144;2023-06-22T07:52:51;21.17;;;14.27;;
31732;SDS011;18312;51.486;7.144;2023-06-22T07:55:18;21.35;;;14.18;;
31732;SDS011;18312;51.486;7.144;2023-06-22T07:57:46;22.13;;;14.60;;
31732;SDS011;18312;51.486;7.144;2023-06-22T08:00:17;23.70;;;14.18;;
31732;SDS011;18312;51.486;7.144;2023-06-22T08:02:45;30.23;;;14.30;;
31732;SDS011;18312;51.486;7.144;2023-06-22T08:05:13;27.38;;;15.15;;
31732;SDS011;18312;51.486;7.144;2023-06-22T08:07:40;21.85;;;14.07;;
31732;SDS011;18312;51.486;7.144;2023-06-22T08:10:10;20.92;;;14.25;;
31732;SDS011;18312;51.486;7.144;2023-06-22T08:12:37;20.98;;;14.60;;
31732;SDS011;18312;51.486;7.144;2023-06-22T08:15:04;26.35;;;14.63;;
31732;SDS011;18312;51.486;7.144;2023-06-22T08:17:32;21.95;;;14.23;;
31732;SDS011;18312;51.486;7.144;2023-06-22T08:20:01;21.45;;;13.68;;
31732;SDS011;18312;51.486;7.144;2023-06-22T08:22:30;22.67;;;14.45;;
31732;SDS011;18312;51.486;7.144;2023-06-22T08:24:58;23.77;;;14.27;;
31732;SDS011;18312;51.486;7.144;2023-06-22T08:27:25;21.75;;;13.75;;
31732;SDS011;18312;51.486;7.144;2023-06-22T08:29:53;18.80;;;13.48;;
31732;SDS011;18312;51.486;7.144;2023-06-22T08:34:50;27.55;;;14.57;;
31732;SDS011;18312;51.486;7.144;2023-06-22T08:37:18;24.48;;;13.57;;
31732;SDS011;18312;51.486;7.144;2023-06-22T08:39:45;27.77;;;13.88;;
31732;SDS011;18312;51.486;7.144;2023-06-22T08:42:12;20.98;;;13.63;;
31732;SDS011;18312;51.486;7.144;2023-06-22T08:44:39;25.23;;;15.00;;
31732;SDS011;18312;51.486;7.144;2023-06-22T08:47:05;23.92;;;14.98;;
31732;SDS011;18312;51.486;7.144;2023-06-22T08:49:32;23.50;;;14.75;;
31732;SDS011;18312;51.486;7.144;2023-06-22T08:51:59;28.42;;;14.73;;
31732;SDS011;18312;51.486;7.144;2023-06-22T08:54:27;24.83;;;14.25;;
31732;SDS011;18312;51.486;7.144;2023-06-22T08:56:54;24.65;;;14.27;;
31732;SDS011;18312;51.486;7.144;2023-06-22T08:59:20;25.05;;;15.48;;
31732;SDS011;18312;51.486;7.144;2023-06-22T09:01:47;26.50;;;15.48;;
31732;SDS011;18312;51.486;7.144;2023-06-22T09:04:14;30.23;;;16.17;;
31732;SDS011;18312;51.486;7.144;2023-06-22T09:06:41;34.30;;;16.58;;
31732;SDS011;18312;51.486;7.144;2023-06-22T09:09:10;28.92;;;16.08;;
31732;SDS011;18312;51.486;7.144;2023-06-22T09:11:38;26.13;;;16.33;;
31732;SDS011;18312;51.486;7.144;2023-06-22T09:14:05;30.85;;;16.85;;
31732;SDS011;18312;51.486;7.144;2023-06-22T09:16:32;26.55;;;15.70;;
31732;SDS011;18312;51.486;7.144;2023-06-22T09:19:00;26.85;;;15.77;;
31732;SDS011;18312;51.486;7.144;2023-06-22T09:21:27;23.83;;;14.63;;
31732;SDS011;18312;51.486;7.144;2023-06-22T09:23:54;27.92;;;16.38;;
31732;SDS011;18312;51.486;7.144;2023-06-22T09:26:20;22.40;;;14.77;;
31732;SDS011;18312;51.486;7.144;2023-06-22T09:28:49;23.67;;;15.57;;
31732;SDS011;18312;51.486;7.144;2023-06-22T09:31:15;21.77;;;15.18;;
31732;SDS011;18312;51.486;7.144;2023-06-22T09:33:42;24.70;;;14.88;;
31732;SDS011;18312;51.486;7.144;2023-06-22T09:36:09;22.70;;;15.07;;
31732;SDS011;18312;51.486;7.144;2023-06-22T09:38:36;23.60;;;14.05;;
31732;SDS011;18312;51.486;7.144;2023-06-22T09:41:03;21.83;;;14.55;;
31732;SDS011;18312;51.486;7.144;2023-06-22T09:43:32;23.55;;;15.60;;
31732;SDS011;18312;51.486;7.144;2023-06-22T09:46:01;24.02;;;15.68;;
31732;SDS011;18312;51.486;7.144;2023-06-22T09:48:28;25.13;;;16.50;;
31732;SDS011;18312;51.486;7.144;2023-06-22T09:50:55;22.45;;;14.35;;
31732;SDS011;18312;51.486;7.144;2023-06-22T09:53:22;22.02;;;15.20;;
31732;SDS011;18312;51.486;7.144;2023-06-22T09:55:49;23.23;;;15.18;;
31732;SDS011;18312;51.486;7.144;2023-06-22T09:58:15;27.52;;;17.20;;
31732;SDS011;18312;51.486;7.144;2023-06-22T10:00:42;27.60;;;16.33;;
31732;SDS011;18312;51.486;7.144;2023-06-22T10:03:10;26.98;;;16.00;;
31732;SDS011;18312;51.486;7.144;2023-06-22T10:05:37;27.92;;;15.90;;
31732;SDS011;18312;51.486;7.144;2023-06-22T10:08:04;23.70;;;15.10;;
31732;SDS011;18312;51.486;7.144;2023-06-22T10:10:32;27.60;;;16.50;;
31732;SDS011;18312;51.486;7.144;2023-06-22T10:13:02;23.90;;;15.32;;
31732;SDS011;18312;51.486;7.144;2023-06-22T10:15:34;26.05;;;15.13;;
31732;SDS011;18312;51.486;7.144;2023-06-22T10:18:01;20.13;;;14.60;;
31732;SDS011;18312;51.486;7.144;2023-06-22T10:20:29;21.50;;;14.15;;
31732;SDS011;18312;51.486;7.144;2023-06-22T10:22:56;20.38;;;14.32;;
31732;SDS011;18312;51.486;7.144;2023-06-22T10:25:23;25.00;;;14.48;;
31732;SDS011;18312;51.486;7.144;2023-06-22T10:27:50;23.38;;;13.20;;
31732;SDS011;18312;51.486;7.144;2023-06-22T10:30:17;19.92;;;13.45;;
31732;SDS011;18312;51.486;7.144;2023-06-22T10:32:44;23.35;;;13.35;;
31732;SDS011;18312;51.486;7.144;2023-06-22T10:35:10;20.83;;;13.02;;
31732;SDS011;18312;51.486;7.144;2023-06-22T10:37:40;17.52;;;12.23;;
31732;SDS011;18312;51.486;7.144;2023-06-22T10:40:08;14.85;;;11.35;;
31732;SDS011;18312;51.486;7.144;2023-06-22T10:42:35;19.88;;;12.82;;
31732;SDS011;18312;51.486;7.144;2023-06-22T10:45:02;15.02;;;11.07;;
31732;SDS011;18312;51.486;7.144;2023-06-22T10:47:29;13.30;;;10.43;;
31732;SDS011;18312;51.486;7.144;2023-06-22T10:49:56;16.92;;;11.25;;
31732;SDS011;18312;51.486;7.144;2023-06-22T10:52:23;18.83;;;11.23;;
31732;SDS011;18312;51.486;7.144;2023-06-22T10:54:51;15.38;;;11.23;;
31732;SDS011;18312;51.486;7.144;2023-06-22T10:57:18;17.88;;;11.15;;
31732;SDS011;18312;51.486;7.144;2023-06-22T10:59:45;13.30;;;9.73;;
31732;SDS011;18312;51.486;7.144;2023-06-22T11:02:11;21.33;;;10.90;;
31732;SDS011;18312;51.486;7.144;2023-06-22T11:04:38;16.17;;;10.20;;
31732;SDS011;18312;51.486;7.144;2023-06-22T11:07:05;14.60;;;9.98;;
31732;SDS011;18312;51.486;7.144;2023-06-22T11:09:32;12.52;;;9.43;;
31732;SDS011;18312;51.486;7.144;2023-06-22T11:12:00;12.75;;;9.18;;
31732;SDS011;18312;51.486;7.144;2023-06-22T11:14:27;17.00;;;10.35;;
31732;SDS011;18312;51.486;7.144;2023-06-22T11:16:53;14.00;;;9.80;;
31732;SDS011;18312;51.486;7.144;2023-06-22T11:19:21;14.13;;;9.60;;
31732;SDS011;18312;51.486;7.144;2023-06-22T11:21:48;18.83;;;10.18;;
31732;SDS011;18312;51.486;7.144;2023-06-22T11:24:14;19.27;;;10.50;;
31732;SDS011;18312;51.486;7.144;2023-06-22T11:26:42;17.65;;;11.77;;
31732;SDS011;18312;51.486;7.144;2023-06-22T11:29:10;16.60;;;10.52;;
31732;SDS011;18312;51.486;7.144;2023-06-22T11:31:37;16.83;;;10.77;;
31732;SDS011;18312;51.486;7.144;2023-06-22T11:34:04;18.30;;;12.13;;
31732;SDS011;18312;51.486;7.144;2023-06-22T11:36:31;18.90;;;11.27;;
31732;SDS011;18312;51.486;7.144;2023-06-22T11:39:00;17.20;;;12.73;;
31732;SDS011;18312;51.486;7.144;2023-06-22T11:41:27;17.60;;;13.18;;
31732;SDS011;18312;51.486;7.144;2023-06-22T11:43:53;23.33;;;13.77;;
31732;SDS011;18312;51.486;7.144;2023-06-22T11:46:22;26.58;;;15.80;;
31732;SDS011;18312;51.486;7.144;2023-06-22T11:48:48;23.75;;;15.85;;
31732;SDS011;18312;51.486;7.144;2023-06-22T11:51:15;25.00;;;16.65;;
31732;SDS011;18312;51.486;7.144;2023-06-22T11:53:42;29.98;;;17.25;;
31732;SDS011;18312;51.486;7.144;2023-06-22T11:56:09;29.58;;;18.55;;
31732;SDS011;18312;51.486;7.144;2023-06-22T11:58:35;35.10;;;19.45;;
31732;SDS011;18312;51.486;7.144;2023-06-22T12:01:02;34.63;;;19.42;;
31732;SDS011;18312;51.486;7.144;2023-06-22T12:03:31;34.92;;;19.80;;
31732;SDS011;18312;51.486;7.144;2023-06-22T12:05:59;47.05;;;22.25;;
31732;SDS011;18312;51.486;7.144;2023-06-22T12:08:26;37.72;;;21.92;;
31732;SDS011;18312;51.486;7.144;2023-06-22T12:10:53;37.90;;;22.77;;
31732;SDS011;18312;51.486;7.144;2023-06-22T12:13:20;34.58;;;22.77;;
31732;SDS011;18312;51.486;7.144;2023-06-22T12:15:46;39.65;;;24.13;;
31732;SDS011;18312;51.486;7.144;2023-06-22T12:18:13;42.65;;;24.95;;
31732;SDS011;18312;51.486;7.144;2023-06-22T12:20:41;48.63;;;27.90;;
31732;SDS011;18312;51.486;7.144;2023-06-22T12:23:09;43.25;;;26.05;;
31732;SDS011;18312;51.486;7.144;2023-06-22T12:25:36;43.50;;;28.05;;
31732;SDS011;18312;51.486;7.144;2023-06-22T12:28:03;48.78;;;29.05;;
31732;SDS011;18312;51.486;7.144;2023-06-22T12:30:30;50.35;;;30.05;;
31732;SDS011;18312;51.486;7.144;2023-06-22T12:32:58;47.58;;;29.02;;
31732;SDS011;18312;51.486;7.144;2023-06-22T12:35:25;52.80;;;30.52;;
31732;SDS011;18312;51.486;7.144;2023-06-22T12:37:53;50.95;;;29.90;;
31732;SDS011;18312;51.486;7.144;2023-06-22T12:40:20;53.90;;;29.92;;
31732;SDS011;18312;51.486;7.144;2023-06-22T12:42:47;51.03;;;29.58;;
31732;SDS011;18312;51.486;7.144;2023-06-22T12:45:14;53.70;;;32.63;;
31732;SDS011;18312;51.486;7.144;2023-06-22T12:47:41;56.88;;;33.00;;
31732;SDS011;18312;51.486;7.144;2023-06-22T12:50:08;62.90;;;34.30;;
31732;SDS011;18312;51.486;7.144;2023-06-22T12:52:36;56.72;;;34.67;;
31732;SDS011;18312;51.486;7.144;2023-06-22T12:55:07;54.75;;;33.85;;
31732;SDS011;18312;51.486;7.144;2023-06-22T12:57:35;56.10;;;31.73;;
31732;SDS011;18312;51.486;7.144;2023-06-22T13:00:02;58.75;;;32.92;;
31732;SDS011;18312;51.486;7.144;2023-06-22T13:02:30;54.70;;;31.83;;
31732;SDS011;18312;51.486;7.144;2023-06-22T13:04:57;54.08;;;32.38;;
31732;SDS011;18312;51.486;7.144;2023-06-22T13:07:24;53.97;;;32.38;;
31732;SDS011;18312;51.486;7.144;2023-06-22T13:09:50;54.45;;;33.03;;
31732;SDS011;18312;51.486;7.144;2023-06-22T13:12:19;61.05;;;33.22;;
31732;SDS011;18312;51.486;7.144;2023-06-22T13:14:46;54.88;;;31.98;;
31732;SDS011;18312;51.486;7.144;2023-06-22T13:17:13;45.55;;;29.08;;
31732;SDS011;18312;51.486;7.144;2023-06-22T13:19:40;49.65;;;29.35;;
31732;SDS011;18312;51.486;7.144;2023-06-22T13:22:10;43.35;;;27.55;;
31732;SDS011;18312;51.486;7.144;2023-06-22T13:24:53;42.33;;;24.88;;
31732;SDS011;18312;51.486;7.144;2023-06-22T13:27:21;40.97;;;24.83;;
31732;SDS011;18312;51.486;7.144;2023-06-22T13:29:47;36.25;;;21.13;;
31732;SDS011;18312;51.486;7.144;2023-06-22T13:32:14;36.72;;;22.98;;
31732;SDS011;18312;51.486;7.144;2023-06-22T13:34:41;31.42;;;18.70;;
31732;SDS011;18312;51.486;7.144;2023-06-22T13:37:08;28.60;;;17.65;;
31732;SDS011;18312;51.486;7.144;2023-06-22T13:39:35;27.30;;;18.30;;
31732;SDS011;18312;51.486;7.144;2023-06-22T13:42:02;30.20;;;17.50;;
31732;SDS011;18312;51.486;7.144;2023-06-22T13:44:30;27.33;;;17.27;;
31732;SDS011;18312;51.486;7.144;2023-06-22T13:46:57;26.73;;;16.80;;
31732;SDS011;18312;51.486;7.144;2023-06-22T13:49:24;28.60;;;16.83;;
31732;SDS011;18312;51.486;7.144;2023-06-22T13:51:50;27.52;;;16.15;;
31732;SDS011;18312;51.486;7.144;2023-06-22T13:54:17;26.35;;;16.08;;
31732;SDS011;18312;51.486;7.144;2023-06-22T13:56:44;22.42;;;15.23;;
31732;SDS011;18312;51.486;7.144;2023-06-22T13:59:11;23.48;;;15.10;;
31732;SDS011;18312;51.486;7.144;2023-06-22T14:01:39;25.02;;;15.90;;
31732;SDS011;18312;51.486;7.144;2023-06-22T14:04:06;25.87;;;15.43;;
31732;SDS011;18312;51.486;7.144;2023-06-22T14:06:33;21.13;;;14.32;;
31732;SDS011;18312;51.486;7.144;2023-06-22T14:09:00;22.00;;;13.68;;
31732;SDS011;18312;51.486;7.144;2023-06-22T14:11:27;22.38;;;14.30;;
31732;SDS011;18312;51.486;7.144;2023-06-22T14:13:54;20.55;;;14.10;;
31732;SDS011;18312;51.486;7.144;2023-06-22T14:16:21;21.45;;;14.05;;
31732;SDS011;18312;51.486;7.144;2023-06-22T14:18:49;20.63;;;13.52;;
31732;SDS011;18312;51.486;7.144;2023-06-22T14:21:16;21.38;;;14.20;;
31732;SDS011;18312;51.486;7.144;2023-06-22T14:23:43;23.15;;;14.65;;
31732;SDS011;18312;51.486;7.144;2023-06-22T14:26:14;23.40;;;14.02;;
31732;SDS011;18312;51.486;7.144;2023-06-22T14:31:13;22.50;;;14.27;;
31732;SDS011;18312;51.486;7.144;2023-06-22T14:33:40;20.88;;;14.45;;
31732;SDS011;18312;51.486;7.144;2023-06-22T14:36:11;20.60;;;14.55;;
31732;SDS011;18312;51.486;7.144;2023-06-22T14:38:37;21.67;;;13.77;;